H.m. Hidalgo — WDB3867 — position and weather

sailwx.info

Track history (hours):
 
Tides and Currents Weather Stations Pressure Air Temp Water Temp Dewpoint Dewpoint Depression Visibility Wind Speed Wind Dir Waves Ship Positions

H.m. Hidalgo

Owner: PACIFIC TUGBOAT SERVICE INC, SAN DIEGO, CA. More information available from US FCC via Universal Licensing System and Coast Guard Vessel Documentation Center.

Last reported at 2018-Jun-23 01:16 UTC. Time now 2018-Jun-23 14:15 UTC.
Position N 33°46' W 118°13'.

Length 25 m; draft 4 m.

Type: Towing. MMSI: 366892180.

Date/timePositionNaut miles runAvg speedWind from/ knotsBaromVisibWave heightAir tempDewpointWater temp
2018-Jun-23 01:16N 33°46' W 118°13'0 0.0
2018-Jun-23 01:00N 33°46' W 118°13'2 4.4
2018-Jun-23 00:30N 33°44' W 118°14'0 0.5
2018-Jun-23 00:00N 33°44' W 118°14'3 5.2
2018-Jun-22 23:30N 33°42' W 118°15'3 6.6
2018-Jun-22 23:00N 33°41' W 118°19'17 7.3
2018-Jun-22 20:37N 33°49' W 118°38'1 7.5
2018-Jun-22 20:30N 33°49' W 118°39'4 7.1
2018-Jun-22 20:00N 33°51' W 118°43'4 7.2
2018-Jun-22 19:30N 33°52' W 118°47'4 7.2
2018-Jun-22 19:00N 33°54' W 118°50'4 7.3
2018-Jun-22 18:30N 33°56' W 118°54'4 7.2
2018-Jun-22 18:00N 33°57' W 118°58'4 7.0
2018-Jun-22 17:30N 33°59' W 119°02'4 7.2
2018-Jun-22 17:00N 34°01' W 119°06'4 7.1
2018-Jun-22 16:30N 34°02' W 119°09'4 7.0
2018-Jun-22 16:00N 34°04' W 119°13'3 6.0
2018-Jun-22 15:30N 34°07' W 119°14'2 4.4
2018-Jun-22 15:00N 34°09' W 119°13'0 0.3
2018-Jun-22 14:29N 34°09' W 119°13'0 0.0
2018-Jun-22 14:00N 34°09' W 119°13'0 0.0
2018-Jun-22 13:28N 34°09' W 119°13'0 0.0
2018-Jun-22 13:00N 34°09' W 119°13'0 0.0
2018-Jun-22 12:26N 34°09' W 119°13'0 0.0
2018-Jun-22 12:00N 34°09' W 119°13'0 0.0
2018-Jun-22 11:27N 34°09' W 119°13'0 0.0
2018-Jun-22 11:00N 34°09' W 119°13'0 0.0
2018-Jun-22 10:30N 34°09' W 119°13'0 0.0
2018-Jun-22 10:00N 34°09' W 119°13'0 0.0
2018-Jun-22 09:30N 34°09' W 119°13'0 0.0
2018-Jun-22 08:57N 34°09' W 119°13'0 0.0
2018-Jun-22 08:30N 34°09' W 119°13'0 0.0
2018-Jun-22 07:58N 34°09' W 119°13'0 0.0
2018-Jun-22 07:30N 34°09' W 119°13'0 0.0
2018-Jun-22 06:59N 34°09' W 119°13'0 0.0
2018-Jun-22 06:30N 34°09' W 119°13'0 0.0
2018-Jun-22 05:59N 34°09' W 119°13'0 0.0
2018-Jun-22 05:30N 34°09' W 119°13'0 0.0
2018-Jun-22 05:00N 34°09' W 119°13'0 0.0
2018-Jun-22 04:30N 34°09' W 119°13'0 0.0
2018-Jun-22 04:00N 34°09' W 119°13'0 0.0
2018-Jun-22 03:30N 34°09' W 119°13'0 0.0
2018-Jun-22 03:00N 34°09' W 119°13'0 0.0
2018-Jun-22 02:30N 34°09' W 119°13'0 0.0
2018-Jun-22 02:00N 34°09' W 119°13'2 3.1
2018-Jun-22 01:30N 34°08' W 119°13'3 6.8
2018-Jun-22 01:00N 34°05' W 119°15'3 6.6
2018-Jun-22 00:30N 34°01' W 119°15'3 6.7
2018-Jun-22 00:00N 33°58' W 119°15'3 6.4
2018-Jun-21 23:30N 33°55' W 119°15'3 6.3
2018-Jun-21 23:00N 33°52' W 119°16'3 6.1
2018-Jun-21 22:30N 33°49' W 119°16'3 6.0
2018-Jun-21 22:00N 33°46' W 119°16'3 5.8
2018-Jun-21 21:30N 33°43' W 119°16'3 6.2
2018-Jun-21 21:00N 33°40' W 119°16'3 6.6
2018-Jun-21 20:30N 33°36' W 119°16'4 7.1
2018-Jun-21 20:00N 33°33' W 119°16'4 7.4
2018-Jun-21 19:30N 33°29' W 119°17'4 7.4
2018-Jun-21 19:00N 33°25' W 119°17'4 7.5
2018-Jun-21 18:30N 33°22' W 119°18'4 7.4
2018-Jun-21 18:00N 33°18' W 119°19'4 7.4
2018-Jun-21 17:30N 33°14' W 119°20'3 6.2
2018-Jun-21 17:00N 33°13' W 119°22'3 4.7
2018-Jun-21 16:28N 33°12' W 119°25'4 1.2
2018-Jun-21 13:15N 33°13' W 119°21'2 6.5
2018-Jun-21 12:54N 33°15' W 119°19'2 5.5
2018-Jun-21 12:30N 33°17' W 119°19'3 5.5
2018-Jun-21 12:00N 33°20' W 119°18'3 5.7
2018-Jun-21 11:30N 33°22' W 119°18'3 5.6
2018-Jun-21 10:58N 33°25' W 119°17'3 5.5
2018-Jun-21 10:30N 33°28' W 119°17'3 5.0
2018-Jun-21 10:00N 33°30' W 119°16'3 5.1
2018-Jun-21 09:28N 33°33' W 119°16'2 5.4
2018-Jun-21 09:00N 33°36' W 119°16'3 5.3
2018-Jun-21 08:25N 33°39' W 119°16'2 4.9
2018-Jun-21 08:00N 33°41' W 119°16'3 5.1
2018-Jun-21 07:30N 33°43' W 119°16'3 5.3
2018-Jun-21 07:00N 33°46' W 119°16'3 5.2
2018-Jun-21 06:30N 33°49' W 119°16'3 5.1
2018-Jun-21 06:00N 33°51' W 119°16'3 5.3
2018-Jun-21 05:30N 33°54' W 119°15'3 5.2
2018-Jun-21 05:00N 33°56' W 119°15'3 6.4
2018-Jun-21 04:30N 33°60' W 119°15'3 6.4
2018-Jun-21 04:00N 34°03' W 119°15'3 6.1
2018-Jun-21 03:30N 34°06' W 119°14'3 5.8
2018-Jun-21 02:58N 34°09' W 119°13'1 1.1
2018-Jun-21 02:29N 34°09' W 119°13'0 0.0
2018-Jun-21 01:59N 34°09' W 119°13'0 0.0
2018-Jun-21 01:29N 34°09' W 119°13'0 0.0
2018-Jun-21 00:46N 34°09' W 119°13'0 0.0
2018-Jun-21 00:28N 34°09' W 119°13'0 0.0
2018-Jun-20 23:58N 34°09' W 119°13'0 0.0
2018-Jun-20 23:29N 34°09' W 119°13'0 0.0
2018-Jun-20 23:00N 34°09' W 119°13'0 0.0
2018-Jun-20 22:30N 34°09' W 119°13'0 0.0
2018-Jun-20 22:00N 34°09' W 119°13'0 0.0
2018-Jun-20 21:30N 34°09' W 119°13'0 0.0
2018-Jun-20 21:00N 34°09' W 119°13'0 0.0
2018-Jun-20 20:29N 34°09' W 119°13'0 0.0
2018-Jun-20 19:59N 34°09' W 119°13'0 0.0
2018-Jun-20 19:30N 34°09' W 119°13'0 0.0
2018-Jun-20 19:00N 34°09' W 119°13'0 0.0
2018-Jun-20 18:30N 34°09' W 119°13'0 0.0
2018-Jun-20 18:00N 34°09' W 119°13'0 0.0
2018-Jun-20 17:27N 34°09' W 119°13'0 0.0
2018-Jun-20 17:00N 34°09' W 119°13'0 0.0
2018-Jun-20 16:30N 34°09' W 119°13'0 0.0
2018-Jun-20 16:00N 34°09' W 119°13'0 0.0
2018-Jun-20 15:30N 34°09' W 119°13'0 0.0
2018-Jun-20 14:59N 34°09' W 119°13'0 0.0
2018-Jun-20 14:29N 34°09' W 119°13'1 1.6
2018-Jun-20 14:00N 34°08' W 119°13'1 2.7
2018-Jun-20 13:29N 34°07' W 119°14'1 1.3
2018-Jun-20 13:00N 34°08' W 119°13'2 3.8
2018-Jun-20 12:30N 34°06' W 119°14'2 4.9
2018-Jun-20 12:00N 34°04' W 119°13'3 6.4
2018-Jun-20 11:30N 34°02' W 119°09'3 6.6
2018-Jun-20 11:00N 34°01' W 119°06'3 6.8
2018-Jun-20 10:30N 33°59' W 119°02'3 6.7
2018-Jun-20 10:00N 33°58' W 118°58'3 6.5
2018-Jun-20 09:30N 33°56' W 118°55'3 6.7
2018-Jun-20 09:00N 33°55' W 118°51'3 6.5
2018-Jun-20 08:30N 33°53' W 118°48'3 6.5
2018-Jun-20 08:00N 33°52' W 118°44'3 6.3
2018-Jun-20 07:27N 33°50' W 118°41'21 6.3
2018-Jun-20 04:04N 33°41' W 118°18'0 5.3
2018-Jun-20 04:00N 33°41' W 118°17'3 5.3
2018-Jun-20 03:30N 33°42' W 118°15'2 4.6
2018-Jun-20 03:00N 33°44' W 118°14'0 0.1
2018-Jun-20 02:30N 33°44' W 118°14'2 3.9
2018-Jun-20 02:00N 33°46' W 118°13'0 0.4
2018-Jun-20 01:30N 33°46' W 118°13'  
Track history (hours):
 
Tides and Currents Weather Stations Pressure Air Temp Water Temp Dewpoint Dewpoint Depression Visibility Wind Speed Wind Dir Waves Ship Positions

H.m. Hidalgo

Owner: PACIFIC TUGBOAT SERVICE INC, SAN DIEGO, CA. More information available from US FCC via Universal Licensing System and Coast Guard Vessel Documentation Center.

Last reported at 2018-Jun-23 01:16 UTC. Time now 2018-Jun-23 14:15 UTC.
Position N 33°46' W 118°13'.

Length 25 m; draft 4 m.

Type: Towing. MMSI: 366892180.

Date/timePositionNaut miles runAvg speedWind from/ knotsBaromVisibWave heightAir tempDewpointWater temp
2018-Jun-23 01:16N 33°46' W 118°13'0 0.0
2018-Jun-23 01:00N 33°46' W 118°13'2 4.4
2018-Jun-23 00:30N 33°44' W 118°14'0 0.5
2018-Jun-23 00:00N 33°44' W 118°14'3 5.2
2018-Jun-22 23:30N 33°42' W 118°15'3 6.6
2018-Jun-22 23:00N 33°41' W 118°19'17 7.3
2018-Jun-22 20:37N 33°49' W 118°38'1 7.5
2018-Jun-22 20:30N 33°49' W 118°39'4 7.1
2018-Jun-22 20:00N 33°51' W 118°43'4 7.2
2018-Jun-22 19:30N 33°52' W 118°47'4 7.2
2018-Jun-22 19:00N 33°54' W 118°50'4 7.3
2018-Jun-22 18:30N 33°56' W 118°54'4 7.2
2018-Jun-22 18:00N 33°57' W 118°58'4 7.0
2018-Jun-22 17:30N 33°59' W 119°02'4 7.2
2018-Jun-22 17:00N 34°01' W 119°06'4 7.1
2018-Jun-22 16:30N 34°02' W 119°09'4 7.0
2018-Jun-22 16:00N 34°04' W 119°13'3 6.0
2018-Jun-22 15:30N 34°07' W 119°14'2 4.4
2018-Jun-22 15:00N 34°09' W 119°13'0 0.3
2018-Jun-22 14:29N 34°09' W 119°13'0 0.0
2018-Jun-22 14:00N 34°09' W 119°13'0 0.0
2018-Jun-22 13:28N 34°09' W 119°13'0 0.0
2018-Jun-22 13:00N 34°09' W 119°13'0 0.0
2018-Jun-22 12:26N 34°09' W 119°13'0 0.0
2018-Jun-22 12:00N 34°09' W 119°13'0 0.0
2018-Jun-22 11:27N 34°09' W 119°13'0 0.0
2018-Jun-22 11:00N 34°09' W 119°13'0 0.0
2018-Jun-22 10:30N 34°09' W 119°13'0 0.0
2018-Jun-22 10:00N 34°09' W 119°13'0 0.0
2018-Jun-22 09:30N 34°09' W 119°13'0 0.0
2018-Jun-22 08:57N 34°09' W 119°13'0 0.0
2018-Jun-22 08:30N 34°09' W 119°13'0 0.0
2018-Jun-22 07:58N 34°09' W 119°13'0 0.0
2018-Jun-22 07:30N 34°09' W 119°13'0 0.0
2018-Jun-22 06:59N 34°09' W 119°13'0 0.0
2018-Jun-22 06:30N 34°09' W 119°13'0 0.0
2018-Jun-22 05:59N 34°09' W 119°13'0 0.0
2018-Jun-22 05:30N 34°09' W 119°13'0 0.0
2018-Jun-22 05:00N 34°09' W 119°13'0 0.0
2018-Jun-22 04:30N 34°09' W 119°13'0 0.0
2018-Jun-22 04:00N 34°09' W 119°13'0 0.0
2018-Jun-22 03:30N 34°09' W 119°13'0 0.0
2018-Jun-22 03:00N 34°09' W 119°13'0 0.0
2018-Jun-22 02:30N 34°09' W 119°13'0 0.0
2018-Jun-22 02:00N 34°09' W 119°13'2 3.1
2018-Jun-22 01:30N 34°08' W 119°13'3 6.8
2018-Jun-22 01:00N 34°05' W 119°15'3 6.6
2018-Jun-22 00:30N 34°01' W 119°15'3 6.7
2018-Jun-22 00:00N 33°58' W 119°15'3 6.4
2018-Jun-21 23:30N 33°55' W 119°15'3 6.3
2018-Jun-21 23:00N 33°52' W 119°16'3 6.1
2018-Jun-21 22:30N 33°49' W 119°16'3 6.0
2018-Jun-21 22:00N 33°46' W 119°16'3 5.8
2018-Jun-21 21:30N 33°43' W 119°16'3 6.2
2018-Jun-21 21:00N 33°40' W 119°16'3 6.6
2018-Jun-21 20:30N 33°36' W 119°16'4 7.1
2018-Jun-21 20:00N 33°33' W 119°16'4 7.4
2018-Jun-21 19:30N 33°29' W 119°17'4 7.4
2018-Jun-21 19:00N 33°25' W 119°17'4 7.5
2018-Jun-21 18:30N 33°22' W 119°18'4 7.4
2018-Jun-21 18:00N 33°18' W 119°19'4 7.4
2018-Jun-21 17:30N 33°14' W 119°20'3 6.2
2018-Jun-21 17:00N 33°13' W 119°22'3 4.7
2018-Jun-21 16:28N 33°12' W 119°25'4 1.2
2018-Jun-21 13:15N 33°13' W 119°21'2 6.5
2018-Jun-21 12:54N 33°15' W 119°19'2 5.5
2018-Jun-21 12:30N 33°17' W 119°19'3 5.5
2018-Jun-21 12:00N 33°20' W 119°18'3 5.7
2018-Jun-21 11:30N 33°22' W 119°18'3 5.6
2018-Jun-21 10:58N 33°25' W 119°17'3 5.5
2018-Jun-21 10:30N 33°28' W 119°17'3 5.0
2018-Jun-21 10:00N 33°30' W 119°16'3 5.1
2018-Jun-21 09:28N 33°33' W 119°16'2 5.4
2018-Jun-21 09:00N 33°36' W 119°16'3 5.3
2018-Jun-21 08:25N 33°39' W 119°16'2 4.9
2018-Jun-21 08:00N 33°41' W 119°16'3 5.1
2018-Jun-21 07:30N 33°43' W 119°16'3 5.3
2018-Jun-21 07:00N 33°46' W 119°16'3 5.2
2018-Jun-21 06:30N 33°49' W 119°16'3 5.1
2018-Jun-21 06:00N 33°51' W 119°16'3 5.3
2018-Jun-21 05:30N 33°54' W 119°15'3 5.2
2018-Jun-21 05:00N 33°56' W 119°15'3 6.4
2018-Jun-21 04:30N 33°60' W 119°15'3 6.4
2018-Jun-21 04:00N 34°03' W 119°15'3 6.1
2018-Jun-21 03:30N 34°06' W 119°14'3 5.8
2018-Jun-21 02:58N 34°09' W 119°13'1 1.1
2018-Jun-21 02:29N 34°09' W 119°13'0 0.0
2018-Jun-21 01:59N 34°09' W 119°13'0 0.0
2018-Jun-21 01:29N 34°09' W 119°13'0 0.0
2018-Jun-21 00:46N 34°09' W 119°13'0 0.0
2018-Jun-21 00:28N 34°09' W 119°13'0 0.0
2018-Jun-20 23:58N 34°09' W 119°13'0 0.0
2018-Jun-20 23:29N 34°09' W 119°13'0 0.0
2018-Jun-20 23:00N 34°09' W 119°13'0 0.0
2018-Jun-20 22:30N 34°09' W 119°13'0 0.0
2018-Jun-20 22:00N 34°09' W 119°13'0 0.0
2018-Jun-20 21:30N 34°09' W 119°13'0 0.0
2018-Jun-20 21:00N 34°09' W 119°13'0 0.0
2018-Jun-20 20:29N 34°09' W 119°13'0 0.0
2018-Jun-20 19:59N 34°09' W 119°13'0 0.0
2018-Jun-20 19:30N 34°09' W 119°13'0 0.0
2018-Jun-20 19:00N 34°09' W 119°13'0 0.0
2018-Jun-20 18:30N 34°09' W 119°13'0 0.0
2018-Jun-20 18:00N 34°09' W 119°13'0 0.0
2018-Jun-20 17:27N 34°09' W 119°13'0 0.0
2018-Jun-20 17:00N 34°09' W 119°13'0 0.0
2018-Jun-20 16:30N 34°09' W 119°13'0 0.0
2018-Jun-20 16:00N 34°09' W 119°13'0 0.0
2018-Jun-20 15:30N 34°09' W 119°13'0 0.0
2018-Jun-20 14:59N 34°09' W 119°13'0 0.0
2018-Jun-20 14:29N 34°09' W 119°13'1 1.6
2018-Jun-20 14:00N 34°08' W 119°13'1 2.7
2018-Jun-20 13:29N 34°07' W 119°14'1 1.3
2018-Jun-20 13:00N 34°08' W 119°13'2 3.8
2018-Jun-20 12:30N 34°06' W 119°14'2 4.9
2018-Jun-20 12:00N 34°04' W 119°13'3 6.4
2018-Jun-20 11:30N 34°02' W 119°09'3 6.6
2018-Jun-20 11:00N 34°01' W 119°06'3 6.8
2018-Jun-20 10:30N 33°59' W 119°02'3 6.7
2018-Jun-20 10:00N 33°58' W 118°58'3 6.5
2018-Jun-20 09:30N 33°56' W 118°55'3 6.7
2018-Jun-20 09:00N 33°55' W 118°51'3 6.5
2018-Jun-20 08:30N 33°53' W 118°48'3 6.5
2018-Jun-20 08:00N 33°52' W 118°44'3 6.3
2018-Jun-20 07:27N 33°50' W 118°41'21 6.3
2018-Jun-20 04:04N 33°41' W 118°18'0 5.3
2018-Jun-20 04:00N 33°41' W 118°17'3 5.3
2018-Jun-20 03:30N 33°42' W 118°15'2 4.6
2018-Jun-20 03:00N 33°44' W 118°14'0 0.1
2018-Jun-20 02:30N 33°44' W 118°14'2 3.9
2018-Jun-20 02:00N 33°46' W 118°13'0 0.4
2018-Jun-20 01:30N 33°46' W 118°13'  

Dump ship's entire track history